Flight Track Log - Related Links

Times and Time Zones

All times are in EST time to prevent confusion due to time zone crossing. See the ASQ5756 flight status page for this flight to view local times or setup timezone preferences in your user account.

Time Position Orientation Groundspeed Altitude Reporting Facility
EST Latitude Longitude Course Direction KTS MPH feet Rate Location/Type
Wed 11:27:40 AM 38.9833 -77.5000 360° North 200 230 2,200  Level Potomac TRACON
Wed 11:28:40 AM 39.0500 -77.5000 360° North 257 296 4,800 2,579 Climbing Potomac TRACON
Wed 11:29:41 AM 39.1167 -77.4667 21° North 285 328 7,400 2,529 Climbing Potomac TRACON
Wed 11:30:41 AM 39.1667 -77.3833 52° Northeast 311 358 9,900 1,600 Climbing Potomac TRACON
Wed 11:31:41 AM 39.1500 -77.2667 100° East 369 425 10,600 1,424 Climbing Potomac TRACON
Wed 11:33:38 AM 39.1136 -76.9881 99° East 402 463 14,100 1,797 Climbing Washington Center
Wed 11:34:38 AM 39.0925 -76.8431 101° East 408 470 15,900 1,438 Climbing Washington Center
Wed 11:35:39 AM 39.0731 -76.7011 100° East 413 475 17,000 555 Climbing Washington Center
Wed 11:36:37 AM 39.0533 -76.5592 100° East 408 470 17,000  Level Washington Center
Wed 11:37:37 AM 39.0356 -76.4228 99° East 403 464 17,000  Level Washington Center
Wed 11:38:39 AM 39.0406 -76.2917 87° East 367 422 17,000  Level Washington Center
Wed 11:39:39 AM 39.0725 -76.1558 73° East 372 428 17,000  Level Washington Center
Wed 11:40:36 AM 39.1086 -76.0250 70° East 372 428 17,000  Level Washington Center
Wed 11:41:37 AM 39.1422 -75.8858 73° East 385 443 17,000  Level Washington Center
Wed 11:42:37 AM 39.1758 -75.7494 72° East 395 455 17,000  Level Washington Center
Wed 11:43:38 AM 39.2092 -75.6131 72° East 395 455 17,000  Level Washington Center
Wed 11:44:39 AM 39.2425 -75.4736 73° East 400 460 17,000  Level Washington Center
Wed 11:45:39 AM 39.2778 -75.3450 70° East 395 455 17,000  Level Washington Center
Wed 11:46:37 AM 39.3108 -75.2133 72° East 389 448 17,000  Level Washington Center
Wed 11:47:37 AM 39.3394 -75.1058 71° East 367 422 17,000  Level Washington Center
Wed 11:48:37 AM 39.3786 -74.9928 66° East 354 407 17,000  Level Washington Center
Wed 11:49:39 AM 39.4217 -74.8797 64° Northeast 343 395 17,000  Level Washington Center
Wed 11:50:39 AM 39.4606 -74.7717 65° Northeast 336 387 17,000  Level Washington Center
Wed 11:52:51 AM 39.5469 -74.5319 65° Northeast 323 372 17,000 31 Level New York Center
Wed 11:53:51 AM 39.5881 -74.4236 64° Northeast 323 372 17,100 -50 Climbing New York Center
Wed 11:54:52 AM 39.6292 -74.3072 65° Northeast 323 372 16,900 -595 Descending New York Center
Wed 11:55:52 AM 39.6656 -74.2039 65° Northeast 323 372 15,900 -1,017 Descending New York Center
Wed 11:56:50 AM 39.7222 -74.1175 50° Northeast 311 358 14,900 -1,017 Descending New York Center
Wed 11:57:50 AM 39.7822 -74.0556 38° Northeast 301 346 13,900 -1,050 Descending New York Center
Wed 11:58:50 AM 39.8575 -73.9808 37° Northeast 306 352 12,800 -1,041 Descending New York Center
Wed 11:59:51 AM 39.9275 -73.9272 30° Northeast 295 339 11,800 -908 Descending New York Center
Wed 12:00:49 PM 39.9978 -73.8761 29° Northeast 290 334 11,000 -454 Descending New York Center
Wed 12:01:50 PM 40.0697 -73.8358 23° Northeast 298 343 10,900 -765 Descending New York Center
Wed 12:02:31 PM 40.1333 -73.8000 23° Northeast 319 367 9,700 -1,842 Descending New York TRACON
Wed 12:03:31 PM 40.2000 -73.7500 30° Northeast 310 357 7,800 -2,000 Descending New York TRACON
Wed 12:04:25 PM 40.2667 -73.7000 30° Northeast 303 349 5,900 -2,050 Descending New York TRACON
Wed 12:05:31 PM 40.3333 -73.7667 323° Northwest 270 311 3,700 -1,714 Descending New York TRACON
Wed 12:06:31 PM 40.3500 -73.8500 285° West 248 285 2,300 -850 Descending New York TRACON
Wed 12:07:31 PM 40.4167 -73.9000 330° Northwest 216 249 2,000 -150 Descending New York TRACON
Wed 12:08:31 PM 40.4667 -73.9000 360° North 196 226 2,000  Level New York TRACON
Wed 12:09:31 PM 40.5167 -73.8667 27° Northeast 196 226 2,000 -158 Level New York TRACON
Wed 12:10:25 PM 40.5500 -73.8333 37° Northeast 197 227 1,700 -632 Descending New York TRACON
Wed 12:11:25 PM 40.6000 -73.8000 27° Northeast 158 182 800 2,735 Descending New York TRACON
Wed 12:13:49 PM 40.6811 -73.7211 36° Northeast 170 196 11,000 4,250 Climbing New York Center
Wed 12:15:00 PM 40.6333 -73.7667 North  Level FlightAware Approximate

Login

Don't have an account? Register now (free) for customized features, flight alerts, and more!